航空気象通報

ウインドサーファーのための航空気象通報による風予報です。

1/31-2/2の航空気象通報

2016年01月31日 21時14分13秒 | TAF

羽田空港
TAF RJTT 311106Z 3112/0118 18008KT 9999 FEW015 SCT030
BECMG 3114/3116 36012KT
日本時間31日21-23時:180度から8ノットの風
23時-1日01時:風が変化
01時-2日03時:360度から12ノットの風

静岡空港
TAF RJNS 311105Z 3112/0118 26012KT 9999 FEW030
BECMG 0106/0109 35005KT
日本時間31日21時-1日15時:260度から12ノットの風
15-18時:風が変化
18時-2日03時:350度から5ノットの風

福岡空港
TAF RJFF 311106Z 3112/0118 28005KT 9999 FEW025
BECMG 3112/3114 15004KT
BECMG 3118/3120 33008KT
TEMPO 3120/3124 4000 -SHSNRA BR
日本時間31日21時:280度から5ノットの風
21-23時:風が変化
23時-1日03時:150度から4ノットの風
03-05時:風が変化
05時-2日02時:330度から8ノットの風

但し、1日05-09時の間:ときどき

那覇空港
TAF ROAH 311108Z 3112/0118 11007KT 9999 FEW030 BKN045
BECMG 3113/3115 07005KT
BECMG 0100/0103 02018KT
TEMPO 0103/0106 4000 SHRA
日本時間31日21-22時:10度から7ノットの風
22-24時:風が変化
1日00-09時:070度から5ノットの風
09-12時:風が変化
12時-2日03時:020度から18ノットの風

但し、1日12-15時の間:ときどき

石垣空港
TAF ROIG 311111Z 3112/0118 06010KT 9999 SCT025 BKN035
BECMG 0100/0103 02020G30KT
TEMPO 0100/0103 4000 SHRA
日本時間31日21時-1日09時:060度から10ノットの風
09-12時:風が変化
12時-2日03時:020度から20ノット、突風30ノット

但し、1日09-12時の間:ときどき

マウイのカフルイ空港
PHOG 311144Z 3112/0112 02011KT P6SM FEW030 SCT050
FM312000 06015G22KT P6SM FEW030 SCT050
FM010600 06011KT P6SM SCT030 SCT050
ハワイ時間31日02-10時:020度から11ノットの風
10-20時:060度から15ノット、突風22ノット
20時-1日02時:060度から11ノットの風

サイパン空港
TAF PGSN 311135Z 3112/0112 07011KT P6SM VCSH FEW020
マリアナ時間31日22時-1日22時:070度から11ノットの風

コメント

1/30-2/1の航空気象通報

2016年01月31日 00時07分08秒 | TAF
羽田空港
TAF RJTT 301105Z 3012/3118 01012KT 9999 FEW020 BKN050
BECMG 3103/3106 13006KT
BECMG 3112/3115 36008KT
日本時間30日21時-31日12時:010度から12ノットの風
12-15時:風が変化
15-21時:130度から6ノットの風
21-24時:風が変化
1日00-03時:360度から8ノットの風


静岡空港
TAF RJNS 301105Z 3012/3118 34004KT 8000 FEW008 BKN015
TEMPO 3012/3018 4000 -RA BR FEW005 BKN008
BECMG 3100/3103 14005KT
BECMG 3106/3109 27014KT
日本時間30日21時-31日09時:340度から4ノットの風
09-12時:風が変化
12-15時:140度から5ノットの風
15-18時:風が変化
18時-1日03時:270度から14ノットの風

但し、30日21時-31日03時:ときどき

福岡空港
TAF RJFF 301114Z 3012/3118 02005KT 9999 FEW015 BKN030
BECMG 3014/3016 14003KT
BECMG 3103/3106 31008KT
日本時間30日21-23時:020度から5ノットの風
23時-31日01時:風が変化
01-12時:140度から3ノットの風
12-15時:風が変化
15時-1日03時:310度から8ノットの風


那覇空港
TAF ROAH 301107Z 3012/3118 01012KT 9999 FEW015 BKN030
日本時間30日21時-1日03時:010度から12ノットの風


石垣空港
TAF ROIG 301109Z 3012/3118 03017KT 9999 FEW015 BKN025
日本時間30日21時-1日03時:030度から17ノットの風


マウイのカフルイ空港
PHOG 301129Z 3012/3112 36005KT P6SM SCT050
FM302100 04013G20KT P6SM SCT050
FM310400 05009KT P6SM BKN050 AMD LTD TO VIS AND WIND TIL 301600
ハワイ時間30日02-11時:360度から5ノットの風
11-18時:040度から13ノット、20ノット

18時-31日02時:050度から9ノットの風


サイパン空港
TAF PGSN 301139Z 3012/3112 07014KT P6SM VCSH FEW025 SCT060
FM310000 07016G22KT P6SM VCSH FEW025 SCT060
マリアナ時間30日22時-31日10時:070度から14ノットの風
10-22時:070度から16ノット、22ノット
コメント

1/29-1/31の航空気象通報

2016年01月30日 00時04分00秒 | TAF
羽田空港
TAF RJTT 291111Z 2912/3018 36016KT 6000 -SNRA FEW008 BKN012
TEMPO 2912/2915 4000 -RA BR FEW005 BKN008
TEMPO 2915/2918 3000 RASN BR FEW005 BKN008
TEMPO 2918/2921 2000 -SN BR FEW003 BKN005
TEMPO 2921/2924 4000 -RASN BR FEW005 BKN008
TEMPO 3012/3018 4000 -RASN BR
日本時間29日21時-31日03時:360度から16ノットの風


静岡空港
TAF AMD RJNS 291444Z 2914/3018 04010KT 8000 -RA FEW005 BKN012
TEMPO 2914/2921 4000 -RA BR FEW005 BKN008
BECMG 3009/3012 36006KT
TEMPO 3012/3018 4000 -RA BR FEW005 BKN008
日本時間29日23時-30日18時:040度から10ノットの風
18-21時:風が変化
21時-31日03時:360度から6ノットの風


福岡空港
TAF RJFF 291108Z 2912/3018 36010KT 8000 -SHRA FEW005 SCT010 BKN015
TEMPO 2912/2915 4000 -SHRA BR FEW005 BKN008 BKN015
日本時間29日21時-31日03時:360度から10ノットの風


那覇空港
TAF ROAH 291106Z 2912/3018 20010KT 9999 SCT010 BKN020
BECMG 2912/2914 01018KT
TEMPO 2912/2918 3000 +SHRA SCT008 BKN015 FEW020CB
TEMPO 2918/2924 4000 SHRA
日本時間29日21時:200度から10ノットの風
21-23時:風が変化
23時-31日03時:010度から18ノットの風

但し、29日21時-30日09時の間:ときどき

石垣空港
TAF ROIG 291109Z 2912/3018 02016KT 8000 -SHRA SCT010 BKN020
TEMPO 2912/2918 3000 SHRA SCT008 BKN015 FEW020CB
TEMPO 2918/2921 4000 SHRA
日本時間29日21時-31日03時:020度から16ノットの風


マウイのカフルイ空港
PHOG 291120Z 2912/3012 VRB06KT 6SM HZ SKC
FM292000 02010KT P6SM FEW020 SCT050
FM300000 04010KT 6SM HZ SCT050
FM300500 06005KT P6SM SCT050 AMD LTD TO VIS AND WIND TIL 291600
ハワイ時間29日02-10時:風向不定6ノットの風
10-14時:020度から10ノットの風
14-19時:040度から10ノットの風
19時-30日02時:060度から5ノット


サイパン空港
TAF PGSN 291120Z 2912/3012 06012G20KT P6SM VCSH FEW018 SCT090
FM300100 07015G25KT P6SM VCSH SCT022 SCT050
FM300800 07011KT P6SM VCSH SCT020
マリアナ時間29日22時-30日11時:060度から12ノット、突風20ノット
11-18時:070度から15ノット、突風25ノット
18-22時:070度から11ノットの風
コメント

1/28-1/30の航空気象通報

2016年01月28日 23時16分14秒 | TAF

羽田空港
TAF RJTT 281106Z 2812/2918 36008KT 9999 FEW020
BECMG 2906/2909 04018KT
BECMG 2912/2915 4000 -RA BR FEW005 BKN008
TEMPO 2915/2918 3000 -RASN BR
日本時間28日21時-29日15時:360度から8ノットの風
15-18時:風が変化
18時-30日03時:040度から18ノットの風
、29日21-24時の後、
但し、30日00-03時の間:ときどき

静岡空港
TAF RJNS 281105Z 2812/2918 26012KT 9999 FEW030
BECMG 2819/2821 02004KT
BECMG 2900/2903 04008KT 4000 -RA BR FEW005 BKN008
TEMPO 2909/2918 2000 RA BR FEW003 BKN005
日本時間28日21時-29日04時:260度から12ノットの風
04-06時:風が変化
06-09時:020度から4ノットの風
09-12時:風が変化
12時-30日03時:040度から8ノットの風
、29日09-12時の後、

福岡空港
TAF RJFF 281108Z 2812/2918 15010KT 9999 -SHRA FEW008 SCT020 BKN030
TEMPO 2812/2818 4000 SHRA BR
TEMPO 2818/2821 3000 SHRA BR FEW005 BKN008 BKN015
BECMG 2819/2821 02005KT
TEMPO 2821/2824 3000 TSRA BR FEW005 BKN008 BKN015 FEW020CB
TEMPO 2900/2909 4000 -SHRA BR FEW005 BKN008 BKN015
日本時間28日21時-29日04時:150度から10ノットの風
04-06時:風が変化
06時-30日03時:020度から5ノットの風

但し、29日06-09時の間:ときどき

那覇空港
TAF ROAH 281108Z 2812/2918 18010KT 9999 FEW025 BKN045
日本時間28日21時-30日03時:180度から10ノットの風

石垣空港
TAF ROIG 281106Z 2812/2918 17012KT 9999 FEW020 BKN040
BECMG 2915/2918 36014KT
TEMPO 2915/2918 4000 SHRA
日本時間28日21時-29日24時:170度から12ノットの風
30日00-03時:風が変化
03時:360度から14ノットの風

但し、30日00-03時の間:ときどき

マウイのカフルイ空港
PHOG 281132Z 2812/2912 13004KT 6SM HZ FEW007 SCT015
FM282100 03012KT P6SM FEW015 SCT030
FM290500 09006KT P6SM SCT030
ハワイ時間28日02-11時:130度から4ノットの風
11-19時:030度から12ノットの風
19時-29日02時:090度から6ノットの風

サイパン空港
TAF PGSN 281120Z 2812/2912 06019G30KT P6SM VCSH SCT012 BKN050
TEMPO 2812/2816 5SM SHRA SCT012 OVC030
マリアナ時間28日22時-29日22時:060度から19ノット、突風30ノットの風

但し、28日22時-29日02時の間:ときどき

コメント

1/27-1/29の航空気象通報

2016年01月28日 00時06分43秒 | TAF

羽田空港
TAF RJTT 271106Z 2712/2818 34010KT 9999 FEW030
BECMG 2800/2803 14008KT
BECMG 2812/2815 35010KT
日本時間27日21時-28日09時:340度から10ノットの風
09-12時:風が変化
12-21時:140度から8ノットの風
21-24時:風が変化
29日00-03時:350度から10ノットの風

静岡空港
TAF RJNS 271105Z 2712/2818 27016KT 9999 FEW030
TEMPO 2712/2713 27020G30KT
日本時間27日21時-29日03時:270度から16ノットの風
但し、27日21-22時の間:ときどき270度から20ノット、突風30ノット

福岡空港
TAF RJFF 271106Z 2712/2818 16005KT 9999 FEW025
TEMPO 2809/2818 4000 -SHRA BR
日本時間27日21時-29日03時:160度から5ノットの風

但し、28日18時-29日03時の間:ときどき

那覇空港
TAF ROAH 271106Z 2712/2818 12010KT 9999 FEW020 SCT045
日本時間27日21時-29日03時:120度から10ノットの風

石垣空港
TAF ROIG 271108Z 2712/2818 12014KT 9999 FEW035 BKN045
BECMG 2716/2718 14012KT
日本時間27日21時-28日01時:120度から14ノットの風
01-03時:風が変化
03時-29日03時:140度から12ノットの風

マウイのカフルイ空港
PHOG 271120Z 2712/2812 VRB03KT P6SM FEW040
FM272000 03012KT P6SM FEW040
FM280600 10006KT P6SM FEW040
ハワイ時間27日02-10時:150度から5ノットの風
10-20時:010度から11ノットの風
20時-28日02時:100度から6ノットの風

サイパン空港
TAF PGSN 271120Z 2712/2812 07011KT P6SM VCSH SCT020 SCT050
FM272200 06018G28KT P6SM VCSH SCT020 BKN050
マリアナ時間27日22時-28日22時:070度から11ノットの風

08-22時:060度から18ノット、突風28ノット

コメント